Portada
METAR-TAF:

METAR-TAF

Aeropuertos :

Aeropuerto de Oslo-Gardermoen

Oslo, Noruega

latitud: 60-12N, longitud: 011-05E, altitud: 208 m

Observación

El informe se hizo hace 14 minutos, a las 18:20 UTC
Viento 5 kt del norte-noroeste, variando entre oeste y noreste
Temperatura -6°C
Humedad 86%
Presión 982 hPa
Visibilidad 10 km o más
Escasas nubes a una altura de 1200 ft

METAR: ENGM 161820Z 33005KT 260V050 9999 FEW012 M06/M08 Q0982 NOSIG

Hora: 19:34 (18:34 UTC)

Pronóstico

Pronóstico válido del 16 a las 18 UTC al 17 a las 18 UTC
Viento 8 kt del norte
Visibilidad: 9000 m
Escasas nubes a una altura de 1000 ft
Cielo nuboso a una altura de 2000 ft
Temporalmente
del 16 a las 18 UTC al 16 a las 20 UTC
Visibilidad: 3000 m
Cielo cubierto a una altura de 500 ft
neblina

TAF: ENGM 1618/1718 35008KT 9000 FEW010 BKN020 TEMPO 1618/1620 3000 BR OVC005

Observaciones y pronósticos meteorológicos de más de 4000 aeropuertos (mensajes METAR y TAF).

Los puntos amarillos y rojos representan las estaciones disponibles.

Ponga el ratón en el punto deseado para ver el nombre de la estación.

Haga clic para ver las observaciones y los pronósticos meteorológicos.

Para cambiar el mapa : haga clic en los botones verdes con una cruz de color negro para hacer un zoom, en el botón verde con un guión para alejar o en las flechas verdes para mapas adyacentes.


METAR-TAF: